Date,TemperatureHighF,TemperatureAvgF,TemperatureLowF,DewpointHighF,DewpointAvgF,DewpointLowF,HumidityHigh,HumidityAvg,HumidityLow,PressureMaxIn,PressureMinIn,WindSpeedMaxMPH,WindSpeedAvgMPH,GustSpeedMaxMPH,PrecipitationSumIn
2013-1-1,87,70,56,56,51,42,82,53,25,29.68,29.52,14,4,17,0.00
2013-1-2,89,72,66,56,53,50,66,51,26,29.54,29.37,11,4,14,0.00
2013-1-4,74,64,48,46,42,36,86,48,26,29.94,29.85,8,4,11,0.00
2013-1-5,89,68,48,57,49,43,99,59,21,29.94,29.87,11,2,11,0.00
2013-1-6,84,68,55,61,53,45,89,64,29,29.91,29.76,10,2,14,0.00
2013-1-8,80,69,57,52,45,39,79,45,24,29.59,29.41,9,4,14,0.02
2013-1-9,87,71,55,54,52,48,86,54,27,29.57,29.31,13,5,17,0.00
2013-1-10,89,76,57,64,48,25,67,42,11,29.65,29.21,17,5,19,0.04
2013-1-11,88,72,55,53,45,35,69,40,17,29.92,29.65,11,4,17,0.00
2013-1-12,97,74,55,60,50,31,91,52,14,29.90,29.62,6,2,8,0.00
2013-1-13,94,73,56,61,56,50,84,59,29,29.68,29.33,9,2,12,0.00
2013-1-14,72,64,56,58,49,42,85,58,35,29.58,29.44,9,2,10,0.00
2013-1-15,61,57,54,58,54,51,99,91,79,29.71,29.56,8,1,11,0.56
2013-1-16,72,60,46,59,53,46,99,79,46,29.71,29.47,7,2,10,0.02
2013-1-17,64,56,50,54,49,42,99,78,53,29.54,29.32,14,3,16,0.14
2013-1-18,74,57,45,56,44,37,99,66,26,29.71,29.54,12,4,14,0.45
2013-1-19,91,69,52,60,52,44,87,59,24,29.70,29.33,17,4,17,0.00
2013-1-20,86,66,46,59,51,44,95,62,26,29.73,29.55,9,2,11,0.00
2013-1-21,76,64,50,57,52,48,98,69,39,30.12,29.73,9,2,9,0.00
2013-1-22,83,66,50,62,56,49,98,73,44,30.13,30.00,9,2,11,0.00
2013-1-23,90,62,52,62,53,48,99,82,24,30.00,29.95,3,1,4,0.00
2013-1-25,77,68,57,54,51,49,79,57,41,30.50,30.43,11,4,15,0.00
2013-1-26,78,67,57,56,53,51,89,64,41,30.50,30.42,10,3,12,0.00
2013-1-27,81,63,50,64,54,48,99,77,38,30.51,30.44,8,2,10,0.00
2013-1-28,81,64,47,63,55,46,99,76,44,30.53,30.34,11,2,13,0.00
2013-1-29,78,64,49,63,55,47,98,74,54,30.36,30.19,8,2,10,0.00
2013-1-30,84,63,50,63,54,47,99,77,40,30.24,30.11,7,1,8,0.00
2013-2-1,89,76,58,65,62,56,95,65,40,29.92,29.79,8,3,11,0.00
2013-2-2,86,67,53,69,59,53,99,79,44,29.83,29.68,9,2,11,0.00
2013-2-3,90,71,56,62,56,49,99,64,25,29.86,29.70,14,4,14,0.00
2013-2-4,80,64,53,68,59,46,94,84,55,29.76,29.38,21,4,26,0.32
2013-2-5,67,56,50,47,43,39,83,63,44,30.16,29.66,17,7,24,0.17
2013-2-6,74,59,52,53,48,43,91,68,36,30.27,30.13,12,3,14,0.00
2013-2-7,74,61,44,57,49,42,98,69,43,30.31,30.23,10,2,13,0.00
2013-2-8,78,64,58,59,55,53,90,73,49,30.31,30.11,11,3,12,0.00
2013-2-9,85,65,48,67,57,48,99,79,45,30.11,29.99,8,2,11,0.00
2013-2-10,86,66,50,65,58,47,99,77,38,30.34,29.84,11,2,12,0.00
2013-2-11,86,68,53,66,55,46,99,67,32,29.90,29.69,19,3,20,0.00
2013-2-12,75,65,59,59,55,50,88,72,46,29.91,29.69,8,3,11,0.00
2013-2-13,75,61,55,59,50,43,98,68,43,29.92,29.65,11,3,14,0.01
2013-2-14,84,66,47,59,47,29,98,57,15,29.91,29.79,8,2,11,0.00
2013-2-15,80,66,52,58,53,48,90,66,38,29.98,29.82,10,3,12,0.01
2013-2-16,84,68,55,63,58,53,96,74,45,29.96,29.83,11,2,15,0.00
2013-2-17,78,62,51,57,53,48,91,73,39,30.24,29.95,8,3,11,0.00
2013-2-18,77,62,50,59,54,48,95,76,50,30.29,30.21,8,2,9,0.00
2013-2-19,86,64,43,61,49,31,99,67,14,30.29,30.15,8,2,11,0.00
2013-2-20,87,66,49,64,54,48,99,70,34,30.15,30.01,11,2,11,0.00
2013-2-21,80,62,49,64,54,49,99,77,41,30.22,29.97,17,5,21,0.00
2013-2-22,80,60,44,51,48,42,92,67,28,30.27,30.19,11,3,14,0.00
2013-2-23,80,59,41,57,47,40,99,69,36,30.38,30.24,8,2,8,0.00
2013-2-24,81,62,44,56,50,41,94,69,35,30.47,30.34,8,2,8,0.00
2013-2-25,79,62,51,56,54,49,97,77,42,30.47,30.35,11,2,13,0.00
2013-2-26,81,66,52,62,57,51,96,75,45,30.38,30.20,10,2,11,0.00
2013-2-27,52,52,51,51,51,50,97,97,96,30.25,30.25,0,0,0,0.00
2013-2-28,83,68,57,62,58,53,98,74,38,30.09,29.80,7,2,7,0.00
2013-3-1,80,65,50,67,54,49,99,71,39,29.93,29.76,16,4,16,0.00
2013-3-2,76,64,53,60,57,51,96,77,51,29.92,29.69,7,1,8,0.00
2013-3-3,69,61,57,58,51,46,94,70,46,29.83,29.68,13,4,17,0.00
2013-3-4,80,62,50,54,49,44,97,65,33,29.92,29.52,17,5,23,0.00
2013-3-5,77,62,48,55,49,44,93,67,42,29.99,29.87,8,3,10,0.00
2013-3-6,90,63,50,58,50,31,99,70,14,30.09,29.72,11,3,17,0.00
2013-3-7,72,59,52,56,51,48,91,75,50,30.12,30.01,12,3,13,0.00
2013-3-8,84,65,47,66,55,47,99,75,36,30.19,30.00,8,2,11,0.00
2013-3-9,78,63,58,60,56,51,97,79,42,30.25,30.12,11,3,12,0.01
2013-3-10,75,65,58,60,57,56,91,77,52,30.19,30.08,11,2,11,0.00
2013-3-11,80,64,52,60,52,46,99,71,32,30.26,30.03,12,3,14,0.00
2013-3-12,65,60,56,53,52,50,83,75,64,30.26,30.04,8,2,8,0.00
2013-3-13,78,63,57,57,54,51,85,72,46,30.04,29.94,7,2,8,0.00
2013-3-14,88,65,48,67,53,42,99,70,36,29.97,29.76,8,1,8,0.00
2013-3-15,85,67,51,61,54,42,96,67,36,30.01,29.79,5,1,5,0.00
2013-3-16,81,64,56,60,58,56,99,83,45,30.01,29.79,6,1,8,0.00
2013-3-17,76,64,58,66,59,55,95,85,59,29.78,29.30,13,2,19,0.14
2013-3-18,63,59,56,63,57,52,99,93,83,29.63,29.31,8,2,13,0.79
2013-3-19,66,55,43,52,48,41,97,78,46,30.11,29.64,9,4,12,0.08
2013-3-20,72,54,43,56,46,41,99,77,38,30.32,30.11,5,0,8,0.00
2013-3-21,75,56,42,62,48,41,99,78,44,30.43,30.32,9,2,14,0.00
2013-3-22,78,61,50,58,53,48,98,79,45,30.42,30.28,8,2,13,0.00
2013-3-23,82,62,48,67,52,46,99,73,31,30.30,30.12,7,2,11,0.00
2013-3-24,82,62,49,58,50,45,97,70,29,30.13,30.03,4,1,4,0.00
2013-3-25,59,57,56,53,51,50,84,80,77,30.04,29.99,1,0,1,0.00
2013-3-26,78,65,56,57,54,49,89,69,45,30.26,29.99,8,2,8,0.00
2013-3-27,80,66,59,61,58,55,92,78,50,30.28,30.21,8,2,8,0.00
2013-3-28,77,64,58,61,58,56,95,83,55,30.27,30.07,6,2,8,0.00
2013-3-29,93,67,47,62,52,40,99,70,16,30.07,29.75,4,1,9,0.00
2013-3-30,87,69,52,57,48,42,84,53,25,29.82,29.75,8,2,12,0.00
2013-3-31,88,66,52,66,54,48,96,68,31,29.75,29.45,10,2,15,0.01
2013-4-1,82,66,56,60,51,44,83,59,33,29.99,29.52,13,4,18,0.00
2013-4-2,84,64,54,60,54,46,88,70,35,29.99,29.66,8,3,11,0.00
2013-4-3,72,62,51,62,55,47,92,77,60,29.75,29.44,19,3,20,0.02
2013-4-4,71,54,40,52,46,40,99,77,40,30.10,29.75,8,2,9,0.05
2013-4-5,66,52,42,54,47,42,99,84,54,30.22,30.04,9,2,12,0.27
2013-4-6,64,50,40,56,46,39,99,85,53,30.31,30.20,9,2,9,0.05
2013-4-7,64,48,36,53,43,35,99,83,46,30.31,30.17,6,1,6,0.05
2013-4-8,79,55,37,60,45,37,99,76,28,30.15,29.98,6,1,8,0.01
2013-4-9,62,52,42,52,45,36,98,78,49,30.28,30.03,17,4,18,0.07
2013-4-10,68,48,36,52,42,35,99,83,41,30.27,30.09,6,1,8,0.00
2013-4-11,84,62,41,61,48,38,99,67,24,30.08,29.81,7,2,8,0.00
2013-4-12,67,58,43,52,47,42,97,70,48,30.27,29.85,11,2,11,0.00
2013-4-13,63,53,42,57,50,42,99,91,76,30.25,30.13,10,2,12,0.00
2013-4-14,80,56,43,66,49,42,99,79,35,30.12,29.90,6,1,8,0.00
2013-4-15,81,59,45,57,48,43,94,73,33,29.90,29.79,5,1,6,0.00
2013-4-16,75,58,47,62,52,46,98,83,48,29.81,29.74,13,2,13,0.11
2013-4-17,61,58,55,58,54,52,99,89,81,29.75,29.53,19,4,19,0.45
2013-4-18,66,56,45,54,49,43,96,80,58,29.86,29.62,10,3,13,0.00
2013-4-19,64,52,41,52,48,41,99,86,59,30.01,29.85,5,1,8,0.00
2013-4-20,55,52,50,51,48,46,99,88,79,30.04,29.97,11,3,11,0.52
2013-4-21,58,56,52,58,55,50,99,98,89,29.97,29.61,13,4,21,1.49
2013-4-22,64,57,53,60,56,53,99,96,83,29.60,29.48,5,1,6,0.02
2013-4-23,78,56,45,62,51,45,99,86,45,29.51,29.45,9,1,11,0.01
2013-4-24,79,56,44,66,50,44,99,82,38,29.50,29.43,11,1,11,0.00
2013-4-25,85,59,46,56,48,39,99,74,21,29.58,29.43,7,1,9,0.00
2013-4-26,70,55,44,58,48,42,99,80,51,29.63,29.39,9,1,9,0.01
2013-4-27,78,58,45,54,47,40,99,70,38,29.69,29.39,11,2,11,0.00
2013-4-28,86,64,48,56,49,45,95,61,25,29.78,29.66,8,2,10,0.00
2013-4-29,83,61,48,59,53,48,99,78,39,29.85,29.64,4,1,4,0.00
2013-4-30,58,48,38,56,47,38,99,93,75,30.18,29.86,8,1,12,0.26
2013-5-1,70,50,34,57,43,34,99,82,44,30.17,30.00,10,2,18,0.01
2013-5-2,55,51,45,53,50,44,99,95,87,29.97,29.69,8,1,11,0.17
2013-5-3,64,53,49,52,50,48,99,89,64,30.06,29.88,8,2,9,0.00
2013-5-4,70,58,50,57,53,50,99,86,60,29.94,29.38,8,1,14,0.00
2013-5-5,77,57,46,62,52,46,99,87,52,29.35,29.13,14,1,14,0.00
2013-5-6,57,50,45,55,49,42,97,94,87,29.86,29.26,21,8,22,0.89
2013-5-7,68,48,37,52,43,37,99,87,44,30.19,29.88,3,1,4,0.01
2013-5-8,70,47,35,56,42,35,99,86,46,30.24,30.17,4,1,5,0.00
2013-5-9,69,53,44,54,48,39,99,85,53,30.17,29.52,5,1,6,0.00
2013-5-10,63,49,44,48,43,38,93,79,45,30.15,29.57,18,7,25,0.24
2013-5-11,68,51,43,47,43,39,96,75,43,30.34,30.16,11,2,11,0.02
2013-5-12,85,54,41,59,47,40,99,83,31,30.35,30.26,4,0,4,0.00
2013-5-13,55,51,42,54,50,42,99,96,88,30.30,30.12,5,1,5,0.00
2013-5-14,69,53,42,56,50,42,99,90,59,30.10,29.87,4,1,4,0.00
2013-5-15,71,51,40,59,47,40,99,90,59,30.02,29.89,4,1,6,0.00
2013-5-16,69,54,43,57,51,43,99,90,60,30.00,29.82,8,2,12,0.00
2013-5-17,66,53,44,57,51,44,99,93,65,29.80,29.60,7,1,11,0.14
2013-5-18,65,56,50,56,52,49,99,88,67,29.59,29.41,8,2,12,0.00
2013-5-19,58,53,50,56,52,50,99,96,81,29.60,29.40,4,0,5,0.07
2013-5-20,66,54,50,58,52,49,99,93,69,29.70,29.58,5,1,8,0.01
2013-5-21,57,54,49,55,53,49,99,98,91,29.74,29.60,11,3,13,0.32
2013-5-22,73,56,47,56,53,46,99,90,51,29.58,29.33,8,2,11,0.13
2013-5-23,54,49,42,51,46,41,99,88,69,29.78,29.30,14,5,23,0.54
2013-5-24,68,47,37,51,42,36,99,86,41,29.98,29.79,7,1,7,0.05
2013-5-25,78,48,38,53,42,38,99,85,33,29.91,29.49,3,1,5,0.00
2013-5-26,77,55,38,48,39,27,99,61,21,29.47,29.09,17,3,18,0.00
2013-5-27,57,47,40,42,38,32,94,71,45,29.39,29.18,13,3,24,0.33
2013-5-28,44,40,35,38,34,28,97,79,54,29.86,29.41,21,10,27,1.15
2013-5-29,64,44,34,41,37,32,98,80,34,30.21,29.87,16,3,21,0.40
2013-5-30,70,42,33,48,37,32,99,84,35,30.30,30.20,5,1,5,0.00
2013-5-31,70,45,34,52,41,33,99,87,44,30.22,30.09,2,1,5,0.00
2013-6-1,61,48,40,53,46,40,99,93,70,30.08,29.73,4,1,4,0.00
2013-6-2,68,59,46,53,48,44,99,69,41,29.72,29.45,14,4,24,0.00
2013-6-3,58,51,47,50,48,45,99,90,67,29.57,29.43,10,2,11,0.48
2013-6-4,52,46,38,51,44,36,99,93,80,29.79,29.34,21,5,28,0.24
2013-6-5,63,47,36,43,39,33,99,75,43,30.10,29.79,5,2,8,0.01
2013-6-6,64,48,40,54,44,40,99,87,60,30.26,30.11,7,2,8,0.02
2013-6-7,68,50,38,50,44,38,99,79,53,30.26,30.12,10,2,14,0.00
2013-6-8,70,49,36,53,43,36,99,82,42,30.10,29.84,9,2,13,0.00
2013-6-9,68,52,44,58,49,43,99,92,59,30.14,29.87,8,1,11,0.01
2013-6-10,60,49,39,56,48,39,99,97,76,30.16,30.09,6,1,9,0.01
2013-6-11,60,53,49,56,52,49,99,96,76,30.08,29.97,6,1,8,0.00
2013-6-12,65,46,36,54,43,36,99,93,60,29.97,29.92,4,1,5,0.01
2013-6-13,65,50,46,51,47,45,99,90,55,29.99,29.83,10,2,11,0.00
2013-6-14,61,47,39,53,45,39,99,92,63,30.09,30.00,8,2,8,0.00
2013-6-15,55,50,48,49,47,45,99,89,80,30.06,29.87,8,2,14,0.20
2013-6-16,54,50,47,54,50,47,99,99,99,29.88,29.55,9,2,14,2.09
2013-6-17,54,52,50,54,52,49,99,99,99,29.55,29.32,15,4,19,2.06
2013-6-18,67,49,40,51,45,40,99,87,48,29.41,29.27,12,3,14,0.01
2013-6-19,51,46,39,51,46,39,99,98,92,29.27,29.00,8,1,8,0.26
2013-6-20,44,42,39,43,41,38,99,97,92,29.34,28.96,23,7,32,2.26
2013-6-21,48,43,40,42,40,36,99,90,74,29.72,29.37,14,7,14,0.91
2013-6-22,44,42,40,43,42,40,99,97,92,29.98,29.71,14,3,14,0.71
2013-6-23,61,41,32,50,38,32,99,91,45,29.99,29.90,4,1,5,0.08
2013-6-24,65,41,33,52,37,33,99,89,46,30.03,29.90,3,1,5,0.00
2013-6-25,65,41,31,55,36,31,99,85,33,30.06,30.01,7,1,8,0.01
2013-6-26,60,45,33,46,39,33,99,80,54,30.15,30.01,13,2,14,0.00
2013-6-27,52,46,41,49,43,38,98,88,77,30.14,30.06,11,3,11,0.12
2013-6-28,56,44,35,44,41,34,99,88,60,30.15,30.08,10,3,13,0.14
2013-6-29,59,39,31,48,36,30,99,91,55,30.14,30.05,4,1,4,0.01
2013-6-30,64,40,32,53,38,32,99,93,50,30.03,29.94,3,1,4,0.00
2013-7-1,70,46,33,50,40,33,99,81,36,29.96,29.85,5,1,8,0.01
2013-7-2,75,58,42,47,42,36,99,58,33,29.92,29.77,19,4,22,0.00
2013-7-3,78,54,42,49,44,40,99,72,26,29.88,29.60,8,2,20,0.00
2013-7-4,67,51,44,51,47,43,99,87,52,30.03,29.85,10,3,13,0.00
2013-7-5,72,52,41,48,42,36,99,72,38,29.82,29.51,8,2,9,0.00
2013-7-6,69,58,49,48,40,33,78,53,30,29.54,29.34,12,5,18,0.00
2013-7-7,66,53,39,44,37,32,79,56,31,29.64,29.44,18,5,24,0.00
2013-7-8,64,43,35,46,36,32,99,80,45,29.93,29.66,5,1,11,0.00
2013-7-9,55,42,33,47,39,33,99,91,58,30.01,29.80,10,1,10,0.15
2013-7-10,59,44,36,42,39,36,99,86,51,30.49,30.04,9,2,14,0.14
2013-7-11,56,40,31,50,37,31,99,91,55,30.49,30.43,4,1,5,0.01
2013-7-12,61,44,38,44,40,37,99,88,47,30.43,30.17,4,1,6,0.00
2013-7-13,66,48,38,53,46,38,99,93,61,30.15,29.73,7,1,7,0.20
2013-7-14,48,43,37,45,38,32,99,83,63,29.92,29.63,30,8,31,0.59
2013-7-15,51,44,39,44,41,38,99,89,67,30.17,29.88,14,5,19,0.71
2013-7-16,56,42,35,50,40,34,99,94,67,30.23,30.17,5,1,10,0.00
2013-7-17,74,45,34,54,41,34,99,87,46,30.20,30.11,4,1,4,0.01
2013-7-18,63,52,42,54,47,41,99,85,53,30.18,30.05,9,1,9,0.01
2013-7-19,67,49,40,56,47,39,99,94,58,30.25,30.13,5,1,8,0.00
2013-7-20,53,49,38,50,48,38,99,96,87,30.23,30.04,4,1,7,0.00
2013-7-21,71,46,37,61,42,36,99,91,51,30.06,29.95,3,1,4,0.01
2013-7-22,74,50,38,55,45,38,99,87,42,30.04,29.88,4,1,5,0.00
2013-7-23,71,53,45,53,49,45,99,89,50,29.88,29.66,4,1,5,0.06
2013-7-24,71,46,38,57,42,38,99,90,39,29.65,29.45,4,1,7,0.01
2013-7-25,72,48,36,50,41,35,99,79,42,29.64,29.42,4,2,7,0.00
2013-7-26,73,47,34,46,38,32,96,76,27,30.00,29.65,3,1,4,0.00
2013-7-27,75,48,37,50,41,36,98,80,30,30.17,30.00,4,1,4,0.00
2013-7-28,76,49,37,52,42,37,99,81,33,30.29,30.16,4,1,4,0.00
2013-7-29,70,46,36,51,40,35,99,84,38,30.38,30.27,4,1,4,0.00
2013-7-30,67,44,33,53,42,33,99,92,54,30.34,30.22,7,1,8,0.00
2013-7-31,56,39,29,50,38,29,99,94,75,30.22,30.12,3,1,4,0.01
2013-8-1,65,44,33,49,40,33,99,90,45,30.29,30.20,6,1,6,0.00
2013-8-2,65,48,42,54,46,42,99,95,61,30.28,30.06,4,0,4,0.22
2013-8-3,56,52,49,52,50,49,99,96,84,30.04,29.83,16,5,22,0.17
2013-8-4,56,53,51,52,51,50,99,94,83,29.83,29.75,12,4,17,0.02
2013-8-5,70,54,46,56,51,45,99,91,58,29.83,29.63,5,2,9,0.01
2013-8-6,74,52,38,49,43,38,99,76,34,29.80,29.60,4,1,7,0.00
2013-8-7,70,49,35,54,44,35,99,84,44,29.79,29.57,11,2,11,0.00
2013-8-8,69,50,42,49,43,36,99,79,42,29.85,29.65,8,1,11,0.00
2013-8-9,66,48,37,50,44,37,99,89,52,29.95,29.85,7,1,11,0.00
2013-8-10,52,49,45,51,48,45,99,97,89,29.90,29.51,6,2,12,0.01
2013-8-11,53,52,50,53,52,49,99,99,99,29.48,29.22,15,5,22,0.53
2013-8-12,56,50,43,56,46,42,99,90,70,29.52,29.27,8,2,11,0.06
2013-8-13,55,47,36,50,44,36,99,92,75,29.51,29.02,9,2,14,0.00
2013-8-14,70,52,38,48,38,26,94,65,20,29.50,29.02,13,3,15,0.06
2013-8-15,77,54,41,52,43,38,97,71,28,29.68,29.49,4,2,7,0.00
2013-8-16,73,53,41,55,47,41,99,82,41,29.79,29.63,7,2,12,0.00
2013-8-17,56,53,49,53,51,48,99,94,84,29.89,29.78,10,4,14,0.27
2013-8-18,53,52,51,52,51,50,99,98,93,29.97,29.87,14,5,18,0.66
2013-8-19,58,52,50,52,49,47,99,90,77,30.01,29.95,14,6,22,0.01
2013-8-20,62,53,49,51,48,45,92,83,65,29.96,29.82,17,6,19,0.00
2013-8-21,60,53,50,52,50,48,97,88,71,29.81,29.63,20,10,22,0.00
2013-8-22,71,56,42,54,49,41,99,81,49,29.62,29.55,20,5,25,0.00
2013-8-23,74,54,38,50,43,38,99,74,33,29.72,29.58,4,1,7,0.00
2013-8-24,69,47,34,56,39,33,99,79,28,29.71,29.55,7,1,10,0.00
2013-8-25,68,48,38,52,43,36,99,85,44,29.62,29.50,5,1,7,0.00
2013-8-26,69,53,40,52,45,39,99,78,42,29.79,29.49,10,2,12,0.00
2013-8-27,72,52,40,54,44,38,99,79,33,29.79,29.71,5,1,6,0.00
2013-8-28,62,47,35,51,42,35,99,84,58,29.75,29.43,14,2,23,0.02
2013-8-29,67,50,41,42,38,31,99,70,28,30.07,29.68,16,3,20,0.18
2013-8-30,60,47,33,46,39,33,99,75,45,30.36,30.08,9,3,13,0.06
2013-8-31,65,48,33,52,41,33,99,80,49,30.42,30.32,7,2,11,0.00
2013-9-1,68,50,36,47,43,36,99,77,48,30.50,30.41,7,2,8,0.00
2013-9-2,65,46,32,52,42,32,99,86,55,30.48,30.32,6,2,8,0.00
2013-9-3,75,48,30,53,39,30,99,77,28,30.30,29.98,8,1,10,0.00
2013-9-4,51,44,38,46,41,35,99,88,68,30.10,29.63,23,7,24,0.51
2013-9-5,62,46,40,44,39,34,98,77,42,30.16,30.09,10,2,17,0.14
2013-9-6,71,48,32,49,40,31,95,76,35,30.07,29.78,4,1,5,0.00
2013-9-7,75,56,40,51,42,35,97,63,32,29.79,29.53,12,2,12,0.00
2013-9-8,67,55,39,50,42,35,99,65,42,29.68,29.49,11,3,13,0.00
2013-9-9,69,52,39,45,39,34,97,63,35,29.65,29.44,10,3,14,0.00
2013-9-10,73,58,41,46,39,30,75,50,35,29.64,29.18,16,5,21,0.00
2013-9-11,77,62,50,63,52,42,95,69,42,29.32,29.16,19,4,23,0.17
2013-9-12,74,56,37,47,40,29,99,58,26,29.64,29.23,12,4,18,0.00
2013-9-13,71,51,35,41,35,27,99,60,21,29.60,29.46,11,3,11,0.00
2013-9-14,66,52,38,48,40,30,94,66,43,29.56,29.40,8,3,11,0.00
2013-9-15,61,46,32,40,34,29,97,66,33,29.91,29.61,18,5,19,0.15
2013-9-16,69,49,32,52,38,32,99,72,32,29.92,29.73,8,2,9,0.00
2013-9-17,53,44,37,43,38,33,94,79,49,30.21,29.92,10,3,17,0.01
2013-9-18,67,46,32,54,40,31,99,81,48,30.18,30.05,7,2,8,0.00
2013-9-19,68,49,36,48,42,34,99,77,41,30.05,29.70,6,1,9,0.04
2013-9-20,65,52,43,54,47,42,99,84,61,29.66,29.55,5,1,5,0.00
2013-9-21,67,55,47,61,51,47,99,90,67,29.62,29.53,4,1,6,0.13
2013-9-22,56,52,46,56,51,46,99,98,92,29.63,29.46,10,2,11,0.37
2013-9-23,71,56,49,60,52,49,99,87,58,30.03,29.54,7,2,9,0.00
2013-9-24,61,52,47,58,48,43,99,88,66,30.14,30.03,8,2,10,0.01
2013-9-25,58,50,47,52,47,44,97,89,78,30.03,29.55,13,3,17,0.13
2013-9-26,78,60,51,54,48,40,89,68,30,29.65,29.42,17,6,25,0.01
2013-9-27,69,55,40,51,46,38,99,75,40,29.67,29.22,12,2,17,0.04
2013-9-28,71,54,41,58,47,41,99,80,42,29.39,29.08,10,3,17,0.01
2013-9-29,64,52,48,48,46,44,94,80,49,29.54,29.40,8,3,11,0.00
2013-9-30,68,52,43,51,47,43,99,84,51,29.83,29.53,5,1,7,0.00
2013-10-1,82,55,38,60,45,35,99,74,19,29.84,29.78,6,1,7,0.00
2013-10-2,78,58,45,51,46,39,98,68,25,29.86,29.64,7,1,9,0.00
2013-10-3,74,60,51,57,50,44,99,73,47,29.89,29.65,10,1,11,0.00
2013-10-4,80,60,48,62,53,47,99,81,40,29.86,29.66,7,1,8,0.00
2013-10-5,68,55,46,57,52,46,99,91,65,29.87,29.67,6,1,7,0.00
2013-10-6,83,62,45,59,52,45,99,75,33,29.67,29.38,7,2,7,0.04
2013-10-7,64,56,46,49,44,34,92,66,34,29.56,29.31,15,4,19,0.05
2013-10-8,46,43,41,46,43,41,99,98,91,29.57,29.47,5,1,7,1.17
2013-10-9,53,45,37,45,41,37,99,87,59,29.61,29.46,13,3,15,0.22
2013-10-10,63,47,32,53,41,32,99,81,46,29.60,29.12,7,2,12,0.01
2013-10-11,66,52,40,52,45,39,99,80,48,29.25,29.05,10,2,11,0.00
2013-10-12,72,52,42,52,46,42,99,81,33,29.48,29.07,11,2,19,0.35
2013-10-13,82,57,37,59,46,37,99,71,28,29.59,29.43,10,2,10,0.01
2013-10-14,70,61,49,60,50,41,90,70,43,29.43,28.84,13,4,18,0.17
2013-10-15,70,53,41,45,40,35,98,66,32,29.51,29.19,18,4,21,0.13
2013-10-16,67,51,34,54,43,34,99,77,46,29.69,29.51,9,2,11,0.01
2013-10-17,88,61,45,54,48,42,92,66,28,29.82,29.69,5,2,6,0.00
2013-10-18,85,64,51,54,48,41,86,56,29,30.05,29.58,19,6,24,0.00
2013-10-19,74,57,44,56,49,41,98,76,39,30.14,30.01,8,2,12,0.00
2013-10-20,85,61,44,58,46,38,99,66,20,30.06,29.89,5,1,8,0.00
2013-10-21,84,62,47,50,44,28,92,59,19,29.89,29.59,11,2,14,0.00
2013-10-22,66,56,50,54,49,44,90,77,53,29.86,29.49,8,2,14,0.02
2013-10-23,70,56,49,53,48,45,99,76,43,29.98,29.78,11,3,14,0.04
2013-10-24,87,66,50,59,51,39,99,64,20,29.78,29.20,13,4,24,0.02
2013-10-25,80,66,54,59,44,25,87,48,17,29.53,29.13,14,4,20,0.05
2013-10-26,77,62,47,47,42,36,80,51,26,29.57,29.41,14,4,19,0.00
2013-10-27,74,60,42,44,33,15,74,41,12,29.58,29.38,15,4,15,0.00
2013-10-28,67,51,42,43,38,34,86,62,36,29.94,29.58,9,3,11,0.00
2013-10-29,71,56,40,55,46,39,99,71,35,29.94,29.76,8,2,11,0.00
2013-10-30,77,57,41,54,47,41,99,73,39,29.77,29.60,10,2,13,0.06
2013-10-31,76,61,49,62,53,48,99,77,47,29.59,29.31,8,2,14,0.04
2013-11-1,68,54,47,48,44,40,94,70,45,29.68,29.51,8,3,9,0.06
2013-11-2,71,53,36,55,44,36,99,76,47,29.76,29.68,8,2,8,0.01
2013-11-3,68,57,44,54,48,41,91,75,52,29.93,29.77,14,4,14,0.00
2013-11-4,82,64,50,60,52,47,99,68,30,29.80,29.68,7,2,7,0.00
2013-11-5,86,65,46,55,48,42,95,63,24,29.95,29.73,7,2,7,0.00
2013-11-6,76,60,53,53,51,50,89,73,43,30.04,29.95,12,5,12,0.00
2013-11-7,76,61,53,58,54,50,99,79,51,30.00,29.83,6,2,6,0.00
2013-11-8,77,60,55,61,56,50,99,85,52,29.86,29.73,11,3,11,0.00
2013-11-9,74,60,53,57,52,49,93,78,50,29.91,29.81,9,3,11,0.00
2013-11-10,93,69,51,60,54,46,99,64,23,29.83,29.57,15,3,19,0.00
2013-11-11,65,56,48,54,46,43,90,70,50,30.34,29.83,16,4,18,0.00
2013-11-12,67,56,49,51,47,44,89,74,48,30.46,30.33,5,2,7,0.00
2013-11-13,70,56,44,52,46,42,99,73,43,30.46,30.27,9,2,10,0.00
2013-11-14,71,58,48,50,47,44,89,67,43,30.30,30.09,8,2,11,0.00
2013-11-15,67,57,49,54,51,48,97,81,63,30.09,29.75,9,2,9,0.00
2013-11-16,92,69,46,58,50,42,99,60,18,29.89,29.65,11,2,12,0.00
2013-11-17,72,61,52,56,52,47,88,74,46,30.01,29.90,8,2,11,0.00
2013-11-18,79,61,56,60,56,53,99,85,49,30.14,29.98,8,2,11,0.00
2013-11-19,70,60,56,59,56,54,99,87,65,30.19,30.09,11,3,11,0.01
2013-11-20,78,63,51,60,56,51,98,80,50,30.10,29.79,11,3,17,0.00
2013-11-21,88,65,49,61,54,48,99,76,29,29.96,29.71,7,1,12,0.01
2013-11-22,62,57,54,57,54,52,99,90,71,30.09,29.96,8,2,10,0.00
2013-11-23,74,62,55,62,58,55,99,88,57,30.09,29.89,6,2,8,0.00
2013-11-24,86,66,55,62,58,55,99,78,39,29.90,29.45,7,2,8,0.00
2013-11-25,65,57,50,57,52,48,99,86,67,29.65,29.46,8,2,11,0.52
2013-11-26,63,54,49,52,48,45,99,82,54,29.91,29.65,6,2,6,0.02
2013-11-27,61,54,50,55,51,47,97,88,75,29.98,29.87,10,2,14,0.20
2013-11-28,67,59,52,55,53,50,94,82,62,29.87,29.44,8,3,11,0.01
2013-11-29,74,62,43,60,52,42,99,72,42,29.44,29.11,11,2,14,0.00
2013-11-30,80,66,50,50,44,18,78,49,10,29.55,29.07,12,4,16,0.00
2013-12-1,74,59,42,48,42,27,99,60,19,30.06,29.54,13,3,14,0.00
2013-12-2,78,62,47,56,50,44,95,67,44,30.13,30.03,8,2,9,0.00
2013-12-3,82,64,44,60,51,43,99,70,33,30.13,29.88,8,2,9,0.00
2013-12-4,79,62,46,64,54,46,99,78,46,29.93,29.73,10,2,10,0.00
2013-12-5,81,66,51,66,58,51,99,77,44,29.73,29.55,10,2,11,0.00
2013-12-6,90,73,57,66,60,53,99,68,35,29.56,29.35,8,2,8,0.00
2013-12-7,87,75,64,54,45,34,58,37,17,29.35,29.26,14,3,14,0.00
2013-12-8,83,67,57,57,51,45,96,60,27,29.52,29.30,6,2,8,0.01
2013-12-9,81,65,56,56,52,45,87,66,30,29.78,29.53,9,3,9,0.00
2013-12-10,75,62,56,64,57,54,99,82,54,29.82,29.74,8,2,10,0.01
2013-12-11,81,64,53,63,56,49,99,77,34,29.77,29.63,11,2,11,0.00
2013-12-12,82,67,49,61,54,47,99,67,37,29.71,29.51,14,2,16,0.00
2013-12-13,85,71,57,62,57,53,95,66,37,29.87,29.59,9,2,9,0.00
2013-12-14,78,66,54,61,58,54,99,78,53,29.88,29.78,8,2,11,0.00
2013-12-15,82,67,51,66,58,51,99,75,47,29.87,29.76,7,2,10,0.00
2013-12-16,83,68,54,65,55,47,99,68,32,29.76,29.62,8,2,8,0.04
2013-12-17,67,57,53,59,53,50,99,88,56,29.89,29.68,9,2,13,0.21
2013-12-18,79,63,52,58,54,50,99,76,44,29.88,29.58,11,3,17,0.11
2013-12-19,70,58,51,51,46,41,90,66,37,30.00,29.73,13,5,15,0.05
2013-12-20,76,60,41,57,50,40,99,70,44,29.99,29.62,9,2,10,0.00
2013-12-21,83,63,51,55,49,26,84,65,14,29.67,29.42,11,3,12,0.01
2013-12-22,72,58,46,54,44,35,99,63,26,29.93,29.67,8,3,12,0.11
2013-12-23,75,63,52,55,50,43,86,64,38,29.93,29.73,8,3,9,0.00
2013-12-24,82,65,55,58,54,45,90,68,37,29.76,29.21,11,3,13,0.00
2013-12-25,86,66,55,60,53,43,99,67,23,29.58,29.26,10,2,12,0.94
2013-12-26,77,63,55,62,58,55,99,84,56,29.86,29.58,8,2,10,0.08
2013-12-27,69,60,54,60,56,50,99,86,66,29.91,29.86,5,2,11,0.04
2013-12-28,70,64,62,64,62,61,99,93,80,29.79,29.75,11,4,13,0.35
2013-12-29,67,63,62,66,63,60,99,98,91,29.76,29.51,10,4,12,0.65
2013-12-30,85,66,52,66,60,48,99,83,41,29.50,29.19,8,2,11,0.17
2013-12-31,77,63,48,55,48,39,98,63,26,29.62,29.32,12,3,15,0.00
2014-1-1,79,62,46,56,48,41,95,64,28,29.62,29.43,11,3,13,0.00
2014-1-2,81,67,56,55,48,39,65,51,34,29.53,29.30,17,4,18,0.00